Aviation Digital Data Service (ADDS)

Output produced by METARs form (2353 UTC 03 December 2016)
found at http://aviationweather.gov/adds/metars/
 
KBDL 032342Z 0400/0506 31010G20KT P6SM BKN045 
     FM040300 31009KT P6SM BKN045 
     FM040600 32008KT P6SM SCT045 SCT250 
     FM042100 33004KT P6SM SCT250 
     FM050400 00000KT P6SM BKN060 BKN150